sensor_id;sensor_type;location;lat;lon;timestamp;P1;durP1;ratioP1;P2;durP2;ratioP2
81651;SDS011;71061;55.714;37.794;2023-11-19T00:02:19;16.60;;;6.75;;
81651;SDS011;71061;55.714;37.794;2023-11-19T00:04:45;16.35;;;7.20;;
81651;SDS011;71061;55.714;37.794;2023-11-19T00:07:11;15.20;;;6.28;;
81651;SDS011;71061;55.714;37.794;2023-11-19T00:09:38;18.35;;;5.97;;
81651;SDS011;71061;55.714;37.794;2023-11-19T00:12:05;15.43;;;6.82;;
81651;SDS011;71061;55.714;37.794;2023-11-19T00:14:32;20.23;;;6.13;;
81651;SDS011;71061;55.714;37.794;2023-11-19T00:16:58;13.68;;;7.18;;
81651;SDS011;71061;55.714;37.794;2023-11-19T00:19:23;15.30;;;6.25;;
81651;SDS011;71061;55.714;37.794;2023-11-19T00:21:49;21.35;;;7.60;;
81651;SDS011;71061;55.714;37.794;2023-11-19T00:24:15;19.05;;;7.45;;
81651;SDS011;71061;55.714;37.794;2023-11-19T00:26:42;21.38;;;7.82;;
81651;SDS011;71061;55.714;37.794;2023-11-19T00:29:08;21.08;;;8.35;;
81651;SDS011;71061;55.714;37.794;2023-11-19T00:31:34;19.80;;;7.57;;
81651;SDS011;71061;55.714;37.794;2023-11-19T00:34:00;21.10;;;7.00;;
81651;SDS011;71061;55.714;37.794;2023-11-19T00:36:28;16.13;;;7.25;;
81651;SDS011;71061;55.714;37.794;2023-11-19T00:38:54;20.65;;;7.38;;
81651;SDS011;71061;55.714;37.794;2023-11-19T00:41:20;19.10;;;7.40;;
81651;SDS011;71061;55.714;37.794;2023-11-19T00:43:46;14.75;;;5.80;;
81651;SDS011;71061;55.714;37.794;2023-11-19T00:46:12;18.88;;;7.10;;
81651;SDS011;71061;55.714;37.794;2023-11-19T00:48:39;17.20;;;8.75;;
81651;SDS011;71061;55.714;37.794;2023-11-19T00:51:06;18.58;;;6.82;;
81651;SDS011;71061;55.714;37.794;2023-11-19T00:53:31;16.20;;;6.65;;
81651;SDS011;71061;55.714;37.794;2023-11-19T00:56:00;16.88;;;6.97;;
81651;SDS011;71061;55.714;37.794;2023-11-19T00:58:26;16.30;;;6.63;;
81651;SDS011;71061;55.714;37.794;2023-11-19T01:00:52;16.45;;;8.23;;
81651;SDS011;71061;55.714;37.794;2023-11-19T01:03:18;16.73;;;6.88;;
81651;SDS011;71061;55.714;37.794;2023-11-19T01:05:44;18.02;;;6.72;;
81651;SDS011;71061;55.714;37.794;2023-11-19T01:08:12;13.65;;;6.15;;
81651;SDS011;71061;55.714;37.794;2023-11-19T01:10:38;17.15;;;8.00;;
81651;SDS011;71061;55.714;37.794;2023-11-19T01:13:04;13.95;;;6.65;;
81651;SDS011;71061;55.714;37.794;2023-11-19T01:15:31;17.38;;;8.63;;
81651;SDS011;71061;55.714;37.794;2023-11-19T01:17:58;12.32;;;6.13;;
81651;SDS011;71061;55.714;37.794;2023-11-19T01:20:24;20.80;;;7.03;;
81651;SDS011;71061;55.714;37.794;2023-11-19T01:22:50;15.63;;;6.25;;
81651;SDS011;71061;55.714;37.794;2023-11-19T01:25:17;15.52;;;6.30;;
81651;SDS011;71061;55.714;37.794;2023-11-19T01:27:44;13.57;;;5.82;;
81651;SDS011;71061;55.714;37.794;2023-11-19T01:30:10;13.10;;;6.43;;
81651;SDS011;71061;55.714;37.794;2023-11-19T01:32:39;15.27;;;5.40;;
81651;SDS011;71061;55.714;37.794;2023-11-19T01:35:06;21.55;;;7.72;;
81651;SDS011;71061;55.714;37.794;2023-11-19T01:37:33;16.95;;;7.00;;
81651;SDS011;71061;55.714;37.794;2023-11-19T01:40:01;13.07;;;5.95;;
81651;SDS011;71061;55.714;37.794;2023-11-19T01:42:29;21.45;;;8.27;;
81651;SDS011;71061;55.714;37.794;2023-11-19T01:44:58;15.40;;;6.43;;
81651;SDS011;71061;55.714;37.794;2023-11-19T01:47:25;20.42;;;9.75;;
81651;SDS011;71061;55.714;37.794;2023-11-19T01:49:51;18.25;;;7.43;;
81651;SDS011;71061;55.714;37.794;2023-11-19T01:52:17;19.45;;;9.88;;
81651;SDS011;71061;55.714;37.794;2023-11-19T01:54:44;18.92;;;8.75;;
81651;SDS011;71061;55.714;37.794;2023-11-19T01:57:12;22.20;;;8.60;;
81651;SDS011;71061;55.714;37.794;2023-11-19T01:59:38;20.67;;;9.07;;
81651;SDS011;71061;55.714;37.794;2023-11-19T02:02:04;17.10;;;8.77;;
81651;SDS011;71061;55.714;37.794;2023-11-19T02:04:31;18.70;;;8.75;;
81651;SDS011;71061;55.714;37.794;2023-11-19T02:06:57;20.30;;;8.73;;
81651;SDS011;71061;55.714;37.794;2023-11-19T02:09:23;21.33;;;8.07;;
81651;SDS011;71061;55.714;37.794;2023-11-19T02:11:49;19.85;;;9.05;;
81651;SDS011;71061;55.714;37.794;2023-11-19T02:14:17;18.73;;;9.07;;
81651;SDS011;71061;55.714;37.794;2023-11-19T02:16:44;25.63;;;9.23;;
81651;SDS011;71061;55.714;37.794;2023-11-19T02:19:10;20.80;;;10.15;;
81651;SDS011;71061;55.714;37.794;2023-11-19T02:21:56;21.85;;;11.15;;
81651;SDS011;71061;55.714;37.794;2023-11-19T02:24:22;28.33;;;11.70;;
81651;SDS011;71061;55.714;37.794;2023-11-19T02:29:26;21.58;;;12.23;;
81651;SDS011;71061;55.714;37.794;2023-11-19T02:31:52;20.48;;;12.60;;
81651;SDS011;71061;55.714;37.794;2023-11-19T02:34:20;19.92;;;13.13;;
81651;SDS011;71061;55.714;37.794;2023-11-19T02:36:47;21.77;;;11.40;;
81651;SDS011;71061;55.714;37.794;2023-11-19T02:39:13;20.58;;;11.30;;
81651;SDS011;71061;55.714;37.794;2023-11-19T02:41:39;21.00;;;11.45;;
81651;SDS011;71061;55.714;37.794;2023-11-19T02:44:05;23.88;;;11.38;;
81651;SDS011;71061;55.714;37.794;2023-11-19T02:46:32;24.95;;;12.35;;
81651;SDS011;71061;55.714;37.794;2023-11-19T02:48:58;27.83;;;10.80;;
81651;SDS011;71061;55.714;37.794;2023-11-19T02:51:24;21.95;;;11.98;;
81651;SDS011;71061;55.714;37.794;2023-11-19T02:53:50;22.55;;;10.93;;
81651;SDS011;71061;55.714;37.794;2023-11-19T02:56:15;23.75;;;11.27;;
81651;SDS011;71061;55.714;37.794;2023-11-19T02:58:45;22.05;;;12.20;;
81651;SDS011;71061;55.714;37.794;2023-11-19T03:01:12;25.73;;;12.80;;
81651;SDS011;71061;55.714;37.794;2023-11-19T03:03:49;23.08;;;11.30;;
81651;SDS011;71061;55.714;37.794;2023-11-19T03:06:20;23.42;;;11.73;;
81651;SDS011;71061;55.714;37.794;2023-11-19T03:08:47;20.73;;;11.93;;
81651;SDS011;71061;55.714;37.794;2023-11-19T03:11:13;22.05;;;11.85;;
81651;SDS011;71061;55.714;37.794;2023-11-19T03:13:39;23.98;;;11.20;;
81651;SDS011;71061;55.714;37.794;2023-11-19T03:16:05;25.13;;;11.90;;
81651;SDS011;71061;55.714;37.794;2023-11-19T03:18:31;21.98;;;11.80;;
81651;SDS011;71061;55.714;37.794;2023-11-19T03:20:57;25.42;;;11.18;;
81651;SDS011;71061;55.714;37.794;2023-11-19T03:23:24;26.23;;;12.82;;
81651;SDS011;71061;55.714;37.794;2023-11-19T03:25:53;27.65;;;12.38;;
81651;SDS011;71061;55.714;37.794;2023-11-19T03:28:21;30.40;;;13.13;;
81651;SDS011;71061;55.714;37.794;2023-11-19T03:30:47;25.52;;;12.07;;
81651;SDS011;71061;55.714;37.794;2023-11-19T03:33:13;26.55;;;11.07;;
81651;SDS011;71061;55.714;37.794;2023-11-19T03:35:40;24.58;;;12.18;;
81651;SDS011;71061;55.714;37.794;2023-11-19T03:38:06;32.67;;;11.43;;
81651;SDS011;71061;55.714;37.794;2023-11-19T03:40:32;32.30;;;12.82;;
81651;SDS011;71061;55.714;37.794;2023-11-19T03:42:58;26.65;;;11.00;;
81651;SDS011;71061;55.714;37.794;2023-11-19T03:45:24;24.65;;;11.02;;
81651;SDS011;71061;55.714;37.794;2023-11-19T03:47:50;22.08;;;11.80;;
81651;SDS011;71061;55.714;37.794;2023-11-19T03:50:16;23.25;;;12.05;;
81651;SDS011;71061;55.714;37.794;2023-11-19T03:52:43;20.48;;;10.68;;
81651;SDS011;71061;55.714;37.794;2023-11-19T03:55:09;24.73;;;11.20;;
81651;SDS011;71061;55.714;37.794;2023-11-19T03:57:35;29.00;;;12.65;;
81651;SDS011;71061;55.714;37.794;2023-11-19T04:00:01;21.65;;;10.15;;
81651;SDS011;71061;55.714;37.794;2023-11-19T04:02:50;26.20;;;10.93;;
81651;SDS011;71061;55.714;37.794;2023-11-19T04:05:15;24.50;;;10.00;;
81651;SDS011;71061;55.714;37.794;2023-11-19T04:07:44;22.40;;;10.20;;
81651;SDS011;71061;55.714;37.794;2023-11-19T04:10:10;21.52;;;10.65;;
81651;SDS011;71061;55.714;37.794;2023-11-19T04:12:36;23.55;;;10.82;;
81651;SDS011;71061;55.714;37.794;2023-11-19T04:15:02;27.70;;;11.32;;
81651;SDS011;71061;55.714;37.794;2023-11-19T04:17:30;23.90;;;11.05;;
81651;SDS011;71061;55.714;37.794;2023-11-19T04:19:55;22.20;;;11.02;;
81651;SDS011;71061;55.714;37.794;2023-11-19T04:22:21;24.38;;;10.88;;
81651;SDS011;71061;55.714;37.794;2023-11-19T04:24:47;24.08;;;11.65;;
81651;SDS011;71061;55.714;37.794;2023-11-19T04:27:13;23.38;;;10.60;;
81651;SDS011;71061;55.714;37.794;2023-11-19T04:29:39;24.77;;;14.07;;
81651;SDS011;71061;55.714;37.794;2023-11-19T04:32:05;23.45;;;11.93;;
81651;SDS011;71061;55.714;37.794;2023-11-19T04:34:31;29.33;;;11.82;;
81651;SDS011;71061;55.714;37.794;2023-11-19T04:36:56;23.73;;;12.15;;
81651;SDS011;71061;55.714;37.794;2023-11-19T04:39:22;32.20;;;13.18;;
81651;SDS011;71061;55.714;37.794;2023-11-19T04:41:48;27.15;;;13.60;;
81651;SDS011;71061;55.714;37.794;2023-11-19T04:44:15;25.40;;;13.82;;
81651;SDS011;71061;55.714;37.794;2023-11-19T04:46:41;29.00;;;13.32;;
81651;SDS011;71061;55.714;37.794;2023-11-19T04:49:09;34.20;;;16.33;;
81651;SDS011;71061;55.714;37.794;2023-11-19T04:54:16;28.83;;;13.70;;
81651;SDS011;71061;55.714;37.794;2023-11-19T04:56:45;27.08;;;13.65;;
81651;SDS011;71061;55.714;37.794;2023-11-19T04:59:11;37.58;;;15.10;;
81651;SDS011;71061;55.714;37.794;2023-11-19T05:01:36;27.75;;;13.43;;
81651;SDS011;71061;55.714;37.794;2023-11-19T05:04:02;34.97;;;14.73;;
81651;SDS011;71061;55.714;37.794;2023-11-19T05:06:28;27.42;;;13.20;;
81651;SDS011;71061;55.714;37.794;2023-11-19T05:08:55;27.35;;;13.88;;
81651;SDS011;71061;55.714;37.794;2023-11-19T05:11:22;30.05;;;13.50;;
81651;SDS011;71061;55.714;37.794;2023-11-19T05:13:48;25.38;;;12.77;;
81651;SDS011;71061;55.714;37.794;2023-11-19T05:16:13;27.30;;;12.02;;
81651;SDS011;71061;55.714;37.794;2023-11-19T05:18:40;27.02;;;13.60;;
81651;SDS011;71061;55.714;37.794;2023-11-19T05:21:06;25.38;;;12.48;;
81651;SDS011;71061;55.714;37.794;2023-11-19T05:23:32;28.70;;;12.52;;
81651;SDS011;71061;55.714;37.794;2023-11-19T05:26:00;30.45;;;13.18;;
81651;SDS011;71061;55.714;37.794;2023-11-19T05:28:26;26.67;;;12.20;;
81651;SDS011;71061;55.714;37.794;2023-11-19T05:30:52;26.08;;;12.10;;
81651;SDS011;71061;55.714;37.794;2023-11-19T05:33:18;33.47;;;13.77;;
81651;SDS011;71061;55.714;37.794;2023-11-19T05:35:43;28.98;;;13.43;;
81651;SDS011;71061;55.714;37.794;2023-11-19T05:38:09;35.22;;;13.63;;
81651;SDS011;71061;55.714;37.794;2023-11-19T05:40:35;29.35;;;13.43;;
81651;SDS011;71061;55.714;37.794;2023-11-19T05:43:01;24.67;;;12.45;;
81651;SDS011;71061;55.714;37.794;2023-11-19T05:45:27;28.98;;;14.10;;
81651;SDS011;71061;55.714;37.794;2023-11-19T05:47:53;34.05;;;14.75;;
81651;SDS011;71061;55.714;37.794;2023-11-19T05:50:18;27.60;;;12.55;;
81651;SDS011;71061;55.714;37.794;2023-11-19T05:52:44;28.50;;;14.00;;
81651;SDS011;71061;55.714;37.794;2023-11-19T05:55:11;35.80;;;13.70;;
81651;SDS011;71061;55.714;37.794;2023-11-19T05:57:38;31.63;;;13.35;;
81651;SDS011;71061;55.714;37.794;2023-11-19T06:00:05;26.48;;;11.75;;
81651;SDS011;71061;55.714;37.794;2023-11-19T06:02:48;29.70;;;14.70;;
81651;SDS011;71061;55.714;37.794;2023-11-19T06:05:13;32.90;;;15.10;;
81651;SDS011;71061;55.714;37.794;2023-11-19T06:07:39;31.83;;;15.43;;
81651;SDS011;71061;55.714;37.794;2023-11-19T06:10:06;38.53;;;15.52;;
81651;SDS011;71061;55.714;37.794;2023-11-19T06:12:35;33.72;;;15.27;;
81651;SDS011;71061;55.714;37.794;2023-11-19T06:15:07;32.47;;;14.40;;
81651;SDS011;71061;55.714;37.794;2023-11-19T06:19:59;27.20;;;14.73;;
81651;SDS011;71061;55.714;37.794;2023-11-19T06:22:25;28.92;;;15.30;;
81651;SDS011;71061;55.714;37.794;2023-11-19T06:24:51;27.60;;;13.20;;
81651;SDS011;71061;55.714;37.794;2023-11-19T06:27:16;34.72;;;16.08;;
81651;SDS011;71061;55.714;37.794;2023-11-19T06:29:42;32.88;;;16.95;;
81651;SDS011;71061;55.714;37.794;2023-11-19T06:32:08;30.55;;;14.60;;
81651;SDS011;71061;55.714;37.794;2023-11-19T06:34:34;32.53;;;16.40;;
81651;SDS011;71061;55.714;37.794;2023-11-19T06:37:00;32.85;;;15.13;;
81651;SDS011;71061;55.714;37.794;2023-11-19T06:39:28;28.40;;;16.05;;
81651;SDS011;71061;55.714;37.794;2023-11-19T06:41:54;38.33;;;17.85;;
81651;SDS011;71061;55.714;37.794;2023-11-19T06:44:19;30.98;;;13.95;;
81651;SDS011;71061;55.714;37.794;2023-11-19T06:46:45;26.05;;;13.80;;
81651;SDS011;71061;55.714;37.794;2023-11-19T06:49:11;30.88;;;15.52;;
81651;SDS011;71061;55.714;37.794;2023-11-19T06:51:41;32.70;;;17.00;;
81651;SDS011;71061;55.714;37.794;2023-11-19T06:54:07;32.10;;;15.95;;
81651;SDS011;71061;55.714;37.794;2023-11-19T06:56:33;29.45;;;13.20;;
81651;SDS011;71061;55.714;37.794;2023-11-19T06:58:58;25.70;;;15.23;;
81651;SDS011;71061;55.714;37.794;2023-11-19T07:01:24;27.58;;;15.02;;
81651;SDS011;71061;55.714;37.794;2023-11-19T07:03:50;29.52;;;15.02;;
81651;SDS011;71061;55.714;37.794;2023-11-19T07:06:16;33.15;;;16.73;;
81651;SDS011;71061;55.714;37.794;2023-11-19T07:08:42;32.90;;;15.10;;
81651;SDS011;71061;55.714;37.794;2023-11-19T07:11:10;25.38;;;12.80;;
81651;SDS011;71061;55.714;37.794;2023-11-19T07:13:37;26.05;;;14.70;;
81651;SDS011;71061;55.714;37.794;2023-11-19T07:16:03;24.65;;;14.18;;
81651;SDS011;71061;55.714;37.794;2023-11-19T07:18:29;32.03;;;15.48;;
81651;SDS011;71061;55.714;37.794;2023-11-19T07:20:54;27.20;;;13.60;;
81651;SDS011;71061;55.714;37.794;2023-11-19T07:23:20;25.17;;;13.20;;
81651;SDS011;71061;55.714;37.794;2023-11-19T07:25:47;24.92;;;11.45;;
81651;SDS011;71061;55.714;37.794;2023-11-19T07:28:13;26.77;;;14.18;;
81651;SDS011;71061;55.714;37.794;2023-11-19T07:30:39;29.10;;;14.27;;
81651;SDS011;71061;55.714;37.794;2023-11-19T07:33:05;24.60;;;13.05;;
81651;SDS011;71061;55.714;37.794;2023-11-19T07:35:31;24.23;;;14.10;;
81651;SDS011;71061;55.714;37.794;2023-11-19T07:37:57;22.85;;;13.20;;
81651;SDS011;71061;55.714;37.794;2023-11-19T07:40:23;30.35;;;16.15;;
81651;SDS011;71061;55.714;37.794;2023-11-19T07:42:49;28.02;;;15.93;;
81651;SDS011;71061;55.714;37.794;2023-11-19T07:45:15;30.05;;;14.52;;
81651;SDS011;71061;55.714;37.794;2023-11-19T07:47:42;30.15;;;15.38;;
81651;SDS011;71061;55.714;37.794;2023-11-19T07:50:10;33.95;;;15.73;;
81651;SDS011;71061;55.714;37.794;2023-11-19T07:52:37;26.42;;;14.70;;
81651;SDS011;71061;55.714;37.794;2023-11-19T07:55:02;27.73;;;13.80;;
81651;SDS011;71061;55.714;37.794;2023-11-19T07:57:29;28.77;;;15.48;;
81651;SDS011;71061;55.714;37.794;2023-11-19T07:59:56;38.47;;;16.00;;
81651;SDS011;71061;55.714;37.794;2023-11-19T08:02:22;25.67;;;14.38;;
81651;SDS011;71061;55.714;37.794;2023-11-19T08:04:49;27.08;;;14.85;;
81651;SDS011;71061;55.714;37.794;2023-11-19T08:07:17;29.75;;;17.20;;
81651;SDS011;71061;55.714;37.794;2023-11-19T08:09:44;31.90;;;14.52;;
81651;SDS011;71061;55.714;37.794;2023-11-19T08:12:10;25.58;;;12.77;;
81651;SDS011;71061;55.714;37.794;2023-11-19T08:14:36;30.75;;;13.50;;
81651;SDS011;71061;55.714;37.794;2023-11-19T08:17:02;25.88;;;15.13;;
81651;SDS011;71061;55.714;37.794;2023-11-19T08:19:28;25.58;;;13.60;;
81651;SDS011;71061;55.714;37.794;2023-11-19T08:21:54;26.63;;;13.57;;
81651;SDS011;71061;55.714;37.794;2023-11-19T08:24:20;28.52;;;12.68;;
81651;SDS011;71061;55.714;37.794;2023-11-19T08:26:45;23.17;;;14.20;;
81651;SDS011;71061;55.714;37.794;2023-11-19T08:29:11;28.90;;;13.82;;
81651;SDS011;71061;55.714;37.794;2023-11-19T08:31:37;25.27;;;13.15;;
81651;SDS011;71061;55.714;37.794;2023-11-19T08:34:02;20.10;;;12.27;;
81651;SDS011;71061;55.714;37.794;2023-11-19T08:36:28;19.35;;;11.88;;
81651;SDS011;71061;55.714;37.794;2023-11-19T08:38:54;19.77;;;10.38;;
81651;SDS011;71061;55.714;37.794;2023-11-19T08:41:20;14.40;;;7.88;;
81651;SDS011;71061;55.714;37.794;2023-11-19T08:43:47;22.95;;;11.02;;
81651;SDS011;71061;55.714;37.794;2023-11-19T08:46:12;12.95;;;8.90;;
81651;SDS011;71061;55.714;37.794;2023-11-19T08:48:38;15.48;;;8.48;;
81651;SDS011;71061;55.714;37.794;2023-11-19T08:51:04;14.50;;;8.27;;
81651;SDS011;71061;55.714;37.794;2023-11-19T08:53:30;13.02;;;8.35;;
81651;SDS011;71061;55.714;37.794;2023-11-19T08:55:56;18.30;;;8.15;;
81651;SDS011;71061;55.714;37.794;2023-11-19T08:58:22;15.93;;;9.02;;
81651;SDS011;71061;55.714;37.794;2023-11-19T09:00:48;16.27;;;7.90;;
81651;SDS011;71061;55.714;37.794;2023-11-19T09:03:13;14.55;;;8.27;;
81651;SDS011;71061;55.714;37.794;2023-11-19T09:05:39;17.38;;;8.13;;
81651;SDS011;71061;55.714;37.794;2023-11-19T09:08:06;16.10;;;8.77;;
81651;SDS011;71061;55.714;37.794;2023-11-19T09:10:32;17.30;;;8.32;;
81651;SDS011;71061;55.714;37.794;2023-11-19T09:12:57;14.82;;;7.82;;
81651;SDS011;71061;55.714;37.794;2023-11-19T09:15:23;19.90;;;9.50;;
81651;SDS011;71061;55.714;37.794;2023-11-19T09:17:49;17.73;;;7.95;;
81651;SDS011;71061;55.714;37.794;2023-11-19T09:20:15;15.32;;;9.68;;
81651;SDS011;71061;55.714;37.794;2023-11-19T09:22:41;15.57;;;7.38;;
81651;SDS011;71061;55.714;37.794;2023-11-19T09:25:07;10.52;;;6.53;;
81651;SDS011;71061;55.714;37.794;2023-11-19T09:27:33;12.32;;;6.38;;
81651;SDS011;71061;55.714;37.794;2023-11-19T09:29:59;13.73;;;7.00;;
81651;SDS011;71061;55.714;37.794;2023-11-19T09:32:25;12.60;;;6.57;;
81651;SDS011;71061;55.714;37.794;2023-11-19T09:34:50;12.50;;;6.75;;
81651;SDS011;71061;55.714;37.794;2023-11-19T09:37:16;13.60;;;5.82;;
81651;SDS011;71061;55.714;37.794;2023-11-19T09:39:42;10.27;;;5.78;;
81651;SDS011;71061;55.714;37.794;2023-11-19T09:42:09;15.07;;;7.18;;
81651;SDS011;71061;55.714;37.794;2023-11-19T09:44:35;18.52;;;11.45;;
81651;SDS011;71061;55.714;37.794;2023-11-19T09:47:04;10.32;;;6.20;;
81651;SDS011;71061;55.714;37.794;2023-11-19T09:49:31;14.25;;;6.07;;
81651;SDS011;71061;55.714;37.794;2023-11-19T09:51:57;14.73;;;7.13;;
81651;SDS011;71061;55.714;37.794;2023-11-19T09:54:23;10.95;;;6.30;;
81651;SDS011;71061;55.714;37.794;2023-11-19T09:56:49;10.80;;;6.93;;
81651;SDS011;71061;55.714;37.794;2023-11-19T09:59:15;11.63;;;6.20;;
81651;SDS011;71061;55.714;37.794;2023-11-19T10:01:41;10.02;;;6.50;;
81651;SDS011;71061;55.714;37.794;2023-11-19T10:04:08;12.98;;;6.22;;
81651;SDS011;71061;55.714;37.794;2023-11-19T10:06:36;16.02;;;6.68;;
81651;SDS011;71061;55.714;37.794;2023-11-19T10:09:02;13.63;;;7.15;;
81651;SDS011;71061;55.714;37.794;2023-11-19T10:11:30;13.35;;;8.05;;
81651;SDS011;71061;55.714;37.794;2023-11-19T10:13:55;12.93;;;6.65;;
81651;SDS011;71061;55.714;37.794;2023-11-19T10:16:27;17.75;;;9.73;;
81651;SDS011;71061;55.714;37.794;2023-11-19T10:18:53;14.73;;;7.97;;
81651;SDS011;71061;55.714;37.794;2023-11-19T10:21:21;15.88;;;7.90;;
81651;SDS011;71061;55.714;37.794;2023-11-19T10:23:48;15.88;;;8.05;;
81651;SDS011;71061;55.714;37.794;2023-11-19T10:26:25;16.02;;;6.97;;
81651;SDS011;71061;55.714;37.794;2023-11-19T10:28:51;15.95;;;6.10;;
81651;SDS011;71061;55.714;37.794;2023-11-19T10:31:17;17.23;;;8.18;;
81651;SDS011;71061;55.714;37.794;2023-11-19T10:33:45;15.43;;;6.72;;
81651;SDS011;71061;55.714;37.794;2023-11-19T10:36:11;15.02;;;7.28;;
81651;SDS011;71061;55.714;37.794;2023-11-19T10:38:38;13.30;;;7.60;;
81651;SDS011;71061;55.714;37.794;2023-11-19T10:41:04;15.55;;;6.88;;
81651;SDS011;71061;55.714;37.794;2023-11-19T10:43:30;15.45;;;7.15;;
81651;SDS011;71061;55.714;37.794;2023-11-19T10:46:13;13.93;;;6.55;;
81651;SDS011;71061;55.714;37.794;2023-11-19T10:48:39;13.63;;;6.90;;
81651;SDS011;71061;55.714;37.794;2023-11-19T10:51:06;16.92;;;6.95;;
81651;SDS011;71061;55.714;37.794;2023-11-19T10:53:35;13.45;;;6.82;;
81651;SDS011;71061;55.714;37.794;2023-11-19T10:56:02;11.55;;;6.35;;
81651;SDS011;71061;55.714;37.794;2023-11-19T10:58:32;14.93;;;6.93;;
81651;SDS011;71061;55.714;37.794;2023-11-19T11:00:58;15.10;;;7.18;;
81651;SDS011;71061;55.714;37.794;2023-11-19T11:03:29;16.45;;;7.30;;
81651;SDS011;71061;55.714;37.794;2023-11-19T11:06:00;15.73;;;6.93;;
81651;SDS011;71061;55.714;37.794;2023-11-19T11:08:29;17.60;;;7.40;;
81651;SDS011;71061;55.714;37.794;2023-11-19T11:10:56;15.55;;;7.15;;
81651;SDS011;71061;55.714;37.794;2023-11-19T11:13:23;14.90;;;6.53;;
81651;SDS011;71061;55.714;37.794;2023-11-19T11:15:50;12.02;;;6.85;;
81651;SDS011;71061;55.714;37.794;2023-11-19T11:18:17;14.15;;;6.13;;
81651;SDS011;71061;55.714;37.794;2023-11-19T11:20:44;11.98;;;5.32;;
81651;SDS011;71061;55.714;37.794;2023-11-19T11:29:10;31.67;;;14.30;;
81651;SDS011;71061;55.714;37.794;2023-11-19T11:32:07;16.75;;;6.50;;
81651;SDS011;71061;55.714;37.794;2023-11-19T11:37:18;10.32;;;5.28;;
81651;SDS011;71061;55.714;37.794;2023-11-19T11:39:49;12.05;;;6.25;;
81651;SDS011;71061;55.714;37.794;2023-11-19T11:45:10;11.52;;;6.47;;
81651;SDS011;71061;55.714;37.794;2023-11-19T11:50:20;16.08;;;8.10;;
81651;SDS011;71061;55.714;37.794;2023-11-19T11:55:59;14.73;;;6.45;;
81651;SDS011;71061;55.714;37.794;2023-11-19T11:58:26;16.80;;;6.68;;
81651;SDS011;71061;55.714;37.794;2023-11-19T12:00:53;13.63;;;6.47;;
81651;SDS011;71061;55.714;37.794;2023-11-19T12:03:20;13.10;;;6.88;;
81651;SDS011;71061;55.714;37.794;2023-11-19T12:05:48;12.48;;;6.65;;
81651;SDS011;71061;55.714;37.794;2023-11-19T12:08:15;15.70;;;7.47;;
81651;SDS011;71061;55.714;37.794;2023-11-19T12:10:46;16.15;;;8.20;;
81651;SDS011;71061;55.714;37.794;2023-11-19T12:13:13;17.25;;;7.40;;
81651;SDS011;71061;55.714;37.794;2023-11-19T12:18:36;15.02;;;7.13;;
81651;SDS011;71061;55.714;37.794;2023-11-19T12:21:04;16.52;;;6.78;;
81651;SDS011;71061;55.714;37.794;2023-11-19T12:23:31;14.43;;;7.65;;
81651;SDS011;71061;55.714;37.794;2023-11-19T12:25:58;14.43;;;6.38;;
81651;SDS011;71061;55.714;37.794;2023-11-19T12:28:24;14.45;;;7.75;;
81651;SDS011;71061;55.714;37.794;2023-11-19T12:30:52;18.52;;;7.75;;
81651;SDS011;71061;55.714;37.794;2023-11-19T12:33:19;17.80;;;7.97;;
81651;SDS011;71061;55.714;37.794;2023-11-19T12:35:46;15.80;;;8.05;;
81651;SDS011;71061;55.714;37.794;2023-11-19T12:38:28;16.15;;;7.57;;
81651;SDS011;71061;55.714;37.794;2023-11-19T12:41:03;14.35;;;7.50;;
81651;SDS011;71061;55.714;37.794;2023-11-19T12:43:30;13.75;;;6.88;;
81651;SDS011;71061;55.714;37.794;2023-11-19T12:45:56;16.80;;;7.80;;
81651;SDS011;71061;55.714;37.794;2023-11-19T12:48:22;14.82;;;7.45;;
81651;SDS011;71061;55.714;37.794;2023-11-19T12:53:27;14.23;;;8.18;;
81651;SDS011;71061;55.714;37.794;2023-11-19T12:55:54;14.55;;;8.57;;
81651;SDS011;71061;55.714;37.794;2023-11-19T12:58:37;19.77;;;11.25;;
81651;SDS011;71061;55.714;37.794;2023-11-19T13:01:05;13.60;;;7.85;;
81651;SDS011;71061;55.714;37.794;2023-11-19T13:03:33;16.77;;;7.95;;
81651;SDS011;71061;55.714;37.794;2023-11-19T13:06:02;23.30;;;7.75;;
81651;SDS011;71061;55.714;37.794;2023-11-19T13:08:42;18.30;;;6.97;;
81651;SDS011;71061;55.714;37.794;2023-11-19T13:11:10;12.55;;;6.47;;
81651;SDS011;71061;55.714;37.794;2023-11-19T13:13:53;15.38;;;6.53;;
81651;SDS011;71061;55.714;37.794;2023-11-19T13:16:20;18.20;;;7.35;;
81651;SDS011;71061;55.714;37.794;2023-11-19T13:18:46;17.83;;;7.60;;
81651;SDS011;71061;55.714;37.794;2023-11-19T13:21:12;17.00;;;8.13;;
81651;SDS011;71061;55.714;37.794;2023-11-19T13:23:38;15.43;;;8.07;;
81651;SDS011;71061;55.714;37.794;2023-11-19T13:26:04;17.80;;;7.68;;
81651;SDS011;71061;55.714;37.794;2023-11-19T13:28:30;19.15;;;7.97;;
81651;SDS011;71061;55.714;37.794;2023-11-19T13:30:56;27.10;;;13.48;;
81651;SDS011;71061;55.714;37.794;2023-11-19T13:33:23;13.13;;;7.05;;
81651;SDS011;71061;55.714;37.794;2023-11-19T13:35:49;14.23;;;7.18;;
81651;SDS011;71061;55.714;37.794;2023-11-19T13:38:14;19.10;;;7.90;;
81651;SDS011;71061;55.714;37.794;2023-11-19T13:40:40;14.88;;;6.28;;
81651;SDS011;71061;55.714;37.794;2023-11-19T13:43:06;15.98;;;6.93;;
81651;SDS011;71061;55.714;37.794;2023-11-19T13:45:32;16.10;;;7.13;;
81651;SDS011;71061;55.714;37.794;2023-11-19T13:47:58;12.73;;;6.18;;
81651;SDS011;71061;55.714;37.794;2023-11-19T13:50:24;11.60;;;6.28;;
81651;SDS011;71061;55.714;37.794;2023-11-19T13:52:50;13.45;;;5.75;;
81651;SDS011;71061;55.714;37.794;2023-11-19T13:55:15;16.48;;;6.88;;
81651;SDS011;71061;55.714;37.794;2023-11-19T13:57:42;10.98;;;5.75;;
81651;SDS011;71061;55.714;37.794;2023-11-19T14:00:09;16.85;;;6.45;;
81651;SDS011;71061;55.714;37.794;2023-11-19T14:02:39;18.65;;;6.95;;
81651;SDS011;71061;55.714;37.794;2023-11-19T14:05:06;11.60;;;5.40;;
81651;SDS011;71061;55.714;37.794;2023-11-19T14:07:32;14.20;;;6.32;;
81651;SDS011;71061;55.714;37.794;2023-11-19T14:09:59;15.48;;;5.72;;
81651;SDS011;71061;55.714;37.794;2023-11-19T14:12:24;16.10;;;6.10;;
81651;SDS011;71061;55.714;37.794;2023-11-19T14:14:50;15.10;;;6.60;;
81651;SDS011;71061;55.714;37.794;2023-11-19T14:17:16;19.75;;;8.20;;
81651;SDS011;71061;55.714;37.794;2023-11-19T14:19:42;16.88;;;7.65;;
81651;SDS011;71061;55.714;37.794;2023-11-19T14:22:08;16.52;;;6.10;;
81651;SDS011;71061;55.714;37.794;2023-11-19T14:24:34;14.23;;;6.47;;
81651;SDS011;71061;55.714;37.794;2023-11-19T14:27:01;16.40;;;8.13;;
81651;SDS011;71061;55.714;37.794;2023-11-19T14:29:29;12.93;;;6.60;;
81651;SDS011;71061;55.714;37.794;2023-11-19T14:31:56;15.80;;;7.63;;
81651;SDS011;71061;55.714;37.794;2023-11-19T14:34:22;16.63;;;8.15;;
81651;SDS011;71061;55.714;37.794;2023-11-19T14:36:48;15.13;;;7.38;;
81651;SDS011;71061;55.714;37.794;2023-11-19T14:39:14;16.70;;;8.00;;
81651;SDS011;71061;55.714;37.794;2023-11-19T14:41:40;15.90;;;7.40;;
81651;SDS011;71061;55.714;37.794;2023-11-19T14:44:08;18.10;;;7.90;;
81651;SDS011;71061;55.714;37.794;2023-11-19T14:46:35;16.40;;;8.27;;